sensor_id;sensor_type;location;lat;lon;timestamp;temperature;humidity
7704;DHT22;3894;49.700;10.770;2023-08-08T00:00:39;11.50;99.90
7704;DHT22;3894;49.700;10.770;2023-08-08T00:03:05;11.50;99.90
7704;DHT22;3894;49.700;10.770;2023-08-08T00:05:30;11.40;99.90
7704;DHT22;3894;49.700;10.770;2023-08-08T00:07:56;11.40;99.90
7704;DHT22;3894;49.700;10.770;2023-08-08T00:10:22;11.30;99.90
7704;DHT22;3894;49.700;10.770;2023-08-08T00:12:47;11.30;99.90
7704;DHT22;3894;49.700;10.770;2023-08-08T00:15:13;11.40;99.90
7704;DHT22;3894;49.700;10.770;2023-08-08T00:17:38;11.40;99.90
7704;DHT22;3894;49.700;10.770;2023-08-08T00:20:05;11.50;99.90
7704;DHT22;3894;49.700;10.770;2023-08-08T00:22:30;11.50;99.90
7704;DHT22;3894;49.700;10.770;2023-08-08T00:24:56;11.50;99.90
7704;DHT22;3894;49.700;10.770;2023-08-08T00:27:22;11.60;99.90
7704;DHT22;3894;49.700;10.770;2023-08-08T00:29:47;11.60;99.90
7704;DHT22;3894;49.700;10.770;2023-08-08T00:32:13;11.60;99.90
7704;DHT22;3894;49.700;10.770;2023-08-08T00:34:39;11.60;99.90
7704;DHT22;3894;49.700;10.770;2023-08-08T00:37:04;11.60;99.90
7704;DHT22;3894;49.700;10.770;2023-08-08T00:39:30;11.70;99.90
7704;DHT22;3894;49.700;10.770;2023-08-08T00:41:56;11.70;99.90
7704;DHT22;3894;49.700;10.770;2023-08-08T00:44:21;11.60;99.90
7704;DHT22;3894;49.700;10.770;2023-08-08T00:46:47;11.60;99.90
7704;DHT22;3894;49.700;10.770;2023-08-08T00:49:13;11.50;99.90
7704;DHT22;3894;49.700;10.770;2023-08-08T00:51:38;11.40;99.90
7704;DHT22;3894;49.700;10.770;2023-08-08T00:54:04;11.40;99.90
7704;DHT22;3894;49.700;10.770;2023-08-08T00:56:31;11.40;99.90
7704;DHT22;3894;49.700;10.770;2023-08-08T00:58:57;11.40;99.90
7704;DHT22;3894;49.700;10.770;2023-08-08T01:01:22;11.40;99.90
7704;DHT22;3894;49.700;10.770;2023-08-08T01:03:48;11.50;99.90
7704;DHT22;3894;49.700;10.770;2023-08-08T01:08:50;11.60;99.90
7704;DHT22;3894;49.700;10.770;2023-08-08T01:11:17;11.60;99.90
7704;DHT22;3894;49.700;10.770;2023-08-08T01:13:43;11.60;99.90
7704;DHT22;3894;49.700;10.770;2023-08-08T01:16:10;11.60;99.90
7704;DHT22;3894;49.700;10.770;2023-08-08T01:18:37;11.60;99.90
7704;DHT22;3894;49.700;10.770;2023-08-08T01:21:03;11.60;99.90
7704;DHT22;3894;49.700;10.770;2023-08-08T01:23:56;11.60;99.90
7704;DHT22;3894;49.700;10.770;2023-08-08T01:26:24;11.60;99.90
7704;DHT22;3894;49.700;10.770;2023-08-08T01:28:53;11.50;99.90
7704;DHT22;3894;49.700;10.770;2023-08-08T01:31:20;11.50;99.90
7704;DHT22;3894;49.700;10.770;2023-08-08T01:33:45;11.40;99.90
7704;DHT22;3894;49.700;10.770;2023-08-08T01:36:20;11.40;99.90
7704;DHT22;3894;49.700;10.770;2023-08-08T01:38:49;11.50;99.90
7704;DHT22;3894;49.700;10.770;2023-08-08T01:41:16;11.50;99.90
7704;DHT22;3894;49.700;10.770;2023-08-08T01:43:43;11.60;99.90
7704;DHT22;3894;49.700;10.770;2023-08-08T01:46:09;11.60;99.90
7704;DHT22;3894;49.700;10.770;2023-08-08T01:48:35;11.60;99.90
7704;DHT22;3894;49.700;10.770;2023-08-08T01:51:01;11.60;99.90
7704;DHT22;3894;49.700;10.770;2023-08-08T01:53:26;11.60;99.90
7704;DHT22;3894;49.700;10.770;2023-08-08T01:55:52;11.50;99.90
7704;DHT22;3894;49.700;10.770;2023-08-08T01:58:18;11.50;99.90
7704;DHT22;3894;49.700;10.770;2023-08-08T02:00:43;11.50;99.90
7704;DHT22;3894;49.700;10.770;2023-08-08T02:03:11;11.50;99.90
7704;DHT22;3894;49.700;10.770;2023-08-08T02:05:36;11.50;99.90
7704;DHT22;3894;49.700;10.770;2023-08-08T02:08:02;11.50;99.90
7704;DHT22;3894;49.700;10.770;2023-08-08T02:10:28;11.50;99.90
7704;DHT22;3894;49.700;10.770;2023-08-08T02:12:54;11.50;99.90
7704;DHT22;3894;49.700;10.770;2023-08-08T02:15:19;11.50;99.90
7704;DHT22;3894;49.700;10.770;2023-08-08T02:17:45;11.50;99.90
7704;DHT22;3894;49.700;10.770;2023-08-08T02:20:11;11.50;99.90
7704;DHT22;3894;49.700;10.770;2023-08-08T02:22:37;11.50;99.90
7704;DHT22;3894;49.700;10.770;2023-08-08T02:25:03;11.50;99.90
7704;DHT22;3894;49.700;10.770;2023-08-08T02:27:29;11.40;99.90
7704;DHT22;3894;49.700;10.770;2023-08-08T02:29:55;11.40;99.90
7704;DHT22;3894;49.700;10.770;2023-08-08T02:32:20;11.50;99.90
7704;DHT22;3894;49.700;10.770;2023-08-08T02:34:46;11.50;99.90
7704;DHT22;3894;49.700;10.770;2023-08-08T02:37:11;11.50;99.90
7704;DHT22;3894;49.700;10.770;2023-08-08T02:39:37;11.50;99.90
7704;DHT22;3894;49.700;10.770;2023-08-08T02:42:03;11.60;99.90
7704;DHT22;3894;49.700;10.770;2023-08-08T02:44:29;11.60;99.90
7704;DHT22;3894;49.700;10.770;2023-08-08T02:46:54;11.60;99.90
7704;DHT22;3894;49.700;10.770;2023-08-08T02:49:20;11.60;99.90
7704;DHT22;3894;49.700;10.770;2023-08-08T02:51:45;11.60;99.90
7704;DHT22;3894;49.700;10.770;2023-08-08T02:54:11;11.60;99.90
7704;DHT22;3894;49.700;10.770;2023-08-08T02:56:37;11.60;99.90
7704;DHT22;3894;49.700;10.770;2023-08-08T02:59:03;11.50;99.90
7704;DHT22;3894;49.700;10.770;2023-08-08T03:01:29;11.50;99.90
7704;DHT22;3894;49.700;10.770;2023-08-08T03:03:55;11.50;99.90
7704;DHT22;3894;49.700;10.770;2023-08-08T03:06:20;11.50;99.90
7704;DHT22;3894;49.700;10.770;2023-08-08T03:08:46;11.40;99.90
7704;DHT22;3894;49.700;10.770;2023-08-08T03:11:12;11.40;99.90
7704;DHT22;3894;49.700;10.770;2023-08-08T03:13:37;11.30;99.90
7704;DHT22;3894;49.700;10.770;2023-08-08T03:16:03;11.30;99.90
7704;DHT22;3894;49.700;10.770;2023-08-08T03:18:29;11.30;99.90
7704;DHT22;3894;49.700;10.770;2023-08-08T03:20:55;11.20;99.90
7704;DHT22;3894;49.700;10.770;2023-08-08T03:23:20;11.20;99.90
7704;DHT22;3894;49.700;10.770;2023-08-08T03:25:46;11.20;99.90
7704;DHT22;3894;49.700;10.770;2023-08-08T03:28:11;11.10;99.90
7704;DHT22;3894;49.700;10.770;2023-08-08T03:30:37;11.10;99.90
7704;DHT22;3894;49.700;10.770;2023-08-08T03:33:04;11.10;99.90
7704;DHT22;3894;49.700;10.770;2023-08-08T03:35:30;11.20;99.90
7704;DHT22;3894;49.700;10.770;2023-08-08T03:37:55;11.20;99.90
7704;DHT22;3894;49.700;10.770;2023-08-08T03:40:21;11.20;99.90
7704;DHT22;3894;49.700;10.770;2023-08-08T03:42:46;11.30;99.90
7704;DHT22;3894;49.700;10.770;2023-08-08T03:45:12;11.30;99.90
7704;DHT22;3894;49.700;10.770;2023-08-08T03:47:38;11.30;99.90
7704;DHT22;3894;49.700;10.770;2023-08-08T03:50:06;11.30;99.90
7704;DHT22;3894;49.700;10.770;2023-08-08T03:52:32;11.30;99.90
7704;DHT22;3894;49.700;10.770;2023-08-08T03:54:59;11.30;99.90
7704;DHT22;3894;49.700;10.770;2023-08-08T03:57:25;11.30;99.90
7704;DHT22;3894;49.700;10.770;2023-08-08T03:59:50;11.40;99.90
7704;DHT22;3894;49.700;10.770;2023-08-08T04:02:16;11.40;99.90
7704;DHT22;3894;49.700;10.770;2023-08-08T04:04:41;11.30;99.90
7704;DHT22;3894;49.700;10.770;2023-08-08T04:07:07;11.30;99.90
7704;DHT22;3894;49.700;10.770;2023-08-08T04:09:32;11.20;99.90
7704;DHT22;3894;49.700;10.770;2023-08-08T04:11:58;11.30;99.90
7704;DHT22;3894;49.700;10.770;2023-08-08T04:14:24;11.20;99.90
7704;DHT22;3894;49.700;10.770;2023-08-08T04:16:49;11.20;99.90
7704;DHT22;3894;49.700;10.770;2023-08-08T04:19:15;11.20;99.90
7704;DHT22;3894;49.700;10.770;2023-08-08T04:21:41;11.20;99.90
7704;DHT22;3894;49.700;10.770;2023-08-08T04:24:07;11.20;99.90
7704;DHT22;3894;49.700;10.770;2023-08-08T04:26:33;11.20;99.90
7704;DHT22;3894;49.700;10.770;2023-08-08T04:28:59;11.20;99.90
7704;DHT22;3894;49.700;10.770;2023-08-08T04:31:25;11.20;99.90
7704;DHT22;3894;49.700;10.770;2023-08-08T04:33:52;11.30;99.90
7704;DHT22;3894;49.700;10.770;2023-08-08T04:36:18;11.30;99.90
7704;DHT22;3894;49.700;10.770;2023-08-08T04:38:43;11.30;99.90
7704;DHT22;3894;49.700;10.770;2023-08-08T04:41:09;11.40;99.90
7704;DHT22;3894;49.700;10.770;2023-08-08T04:43:34;11.40;99.90
7704;DHT22;3894;49.700;10.770;2023-08-08T04:46:00;11.40;99.90
7704;DHT22;3894;49.700;10.770;2023-08-08T04:48:25;11.40;99.90
7704;DHT22;3894;49.700;10.770;2023-08-08T04:50:51;11.30;99.90
7704;DHT22;3894;49.700;10.770;2023-08-08T04:53:16;11.40;99.90
7704;DHT22;3894;49.700;10.770;2023-08-08T04:55:42;11.40;99.90
7704;DHT22;3894;49.700;10.770;2023-08-08T04:58:08;11.40;99.90
7704;DHT22;3894;49.700;10.770;2023-08-08T05:00:33;11.40;99.90
7704;DHT22;3894;49.700;10.770;2023-08-08T05:02:59;11.30;99.90
7704;DHT22;3894;49.700;10.770;2023-08-08T05:05:24;11.30;99.90
7704;DHT22;3894;49.700;10.770;2023-08-08T05:07:50;11.40;99.90
7704;DHT22;3894;49.700;10.770;2023-08-08T05:10:16;11.40;99.90
7704;DHT22;3894;49.700;10.770;2023-08-08T05:12:41;11.40;99.90
7704;DHT22;3894;49.700;10.770;2023-08-08T05:15:07;11.50;99.90
7704;DHT22;3894;49.700;10.770;2023-08-08T05:17:33;11.50;99.90
7704;DHT22;3894;49.700;10.770;2023-08-08T05:19:58;11.40;99.90
7704;DHT22;3894;49.700;10.770;2023-08-08T05:22:24;11.40;99.90
7704;DHT22;3894;49.700;10.770;2023-08-08T05:24:50;11.60;99.90
7704;DHT22;3894;49.700;10.770;2023-08-08T05:27:15;11.80;99.90
7704;DHT22;3894;49.700;10.770;2023-08-08T05:29:41;12.00;99.90
7704;DHT22;3894;49.700;10.770;2023-08-08T05:32:07;12.20;99.90
7704;DHT22;3894;49.700;10.770;2023-08-08T05:34:33;12.40;99.90
7704;DHT22;3894;49.700;10.770;2023-08-08T05:36:59;12.50;99.90
7704;DHT22;3894;49.700;10.770;2023-08-08T05:39:25;12.50;99.90
7704;DHT22;3894;49.700;10.770;2023-08-08T05:41:51;12.60;99.90
7704;DHT22;3894;49.700;10.770;2023-08-08T05:44:17;12.70;99.90
7704;DHT22;3894;49.700;10.770;2023-08-08T05:46:42;12.90;99.90
7704;DHT22;3894;49.700;10.770;2023-08-08T05:49:08;13.20;99.90
7704;DHT22;3894;49.700;10.770;2023-08-08T05:51:34;13.30;99.90
7704;DHT22;3894;49.700;10.770;2023-08-08T05:53:59;13.40;99.90
7704;DHT22;3894;49.700;10.770;2023-08-08T05:56:25;13.50;99.90
7704;DHT22;3894;49.700;10.770;2023-08-08T05:58:50;13.60;99.90
7704;DHT22;3894;49.700;10.770;2023-08-08T06:01:16;13.70;99.90
7704;DHT22;3894;49.700;10.770;2023-08-08T06:03:41;13.90;99.90
7704;DHT22;3894;49.700;10.770;2023-08-08T06:06:07;14.00;99.90
7704;DHT22;3894;49.700;10.770;2023-08-08T06:08:33;14.00;99.90
7704;DHT22;3894;49.700;10.770;2023-08-08T06:10:59;14.20;99.90
7704;DHT22;3894;49.700;10.770;2023-08-08T06:13:24;14.40;99.90
7704;DHT22;3894;49.700;10.770;2023-08-08T06:15:50;14.50;99.90
7704;DHT22;3894;49.700;10.770;2023-08-08T06:18:16;14.60;99.90
7704;DHT22;3894;49.700;10.770;2023-08-08T06:20:42;14.60;99.90
7704;DHT22;3894;49.700;10.770;2023-08-08T06:23:08;14.60;99.90
7704;DHT22;3894;49.700;10.770;2023-08-08T06:25:34;14.70;99.90
7704;DHT22;3894;49.700;10.770;2023-08-08T06:27:59;14.80;99.90
7704;DHT22;3894;49.700;10.770;2023-08-08T06:30:25;14.90;99.90
7704;DHT22;3894;49.700;10.770;2023-08-08T06:32:50;15.10;99.90
7704;DHT22;3894;49.700;10.770;2023-08-08T06:35:16;15.30;99.90
7704;DHT22;3894;49.700;10.770;2023-08-08T06:37:42;15.50;99.90
7704;DHT22;3894;49.700;10.770;2023-08-08T06:40:09;15.50;99.90
7704;DHT22;3894;49.700;10.770;2023-08-08T06:42:35;15.40;99.90
7704;DHT22;3894;49.700;10.770;2023-08-08T06:45:00;15.30;99.90
7704;DHT22;3894;49.700;10.770;2023-08-08T06:47:26;15.40;99.90
7704;DHT22;3894;49.700;10.770;2023-08-08T06:49:51;15.50;99.90
7704;DHT22;3894;49.700;10.770;2023-08-08T06:52:17;15.70;99.90
7704;DHT22;3894;49.700;10.770;2023-08-08T06:54:43;15.70;99.90
7704;DHT22;3894;49.700;10.770;2023-08-08T06:57:08;15.60;99.90
7704;DHT22;3894;49.700;10.770;2023-08-08T06:59:34;15.60;99.90
7704;DHT22;3894;49.700;10.770;2023-08-08T07:01:59;15.70;99.90
7704;DHT22;3894;49.700;10.770;2023-08-08T07:04:25;15.80;99.90
7704;DHT22;3894;49.700;10.770;2023-08-08T07:06:51;15.80;99.90
7704;DHT22;3894;49.700;10.770;2023-08-08T07:09:16;16.10;99.90
7704;DHT22;3894;49.700;10.770;2023-08-08T07:11:42;16.20;99.90
7704;DHT22;3894;49.700;10.770;2023-08-08T07:14:08;16.40;99.90
7704;DHT22;3894;49.700;10.770;2023-08-08T07:16:33;16.40;99.90
7704;DHT22;3894;49.700;10.770;2023-08-08T07:18:59;16.50;99.90
7704;DHT22;3894;49.700;10.770;2023-08-08T07:21:25;16.60;99.90
7704;DHT22;3894;49.700;10.770;2023-08-08T07:23:50;16.70;99.90
7704;DHT22;3894;49.700;10.770;2023-08-08T07:26:16;16.90;99.90
7704;DHT22;3894;49.700;10.770;2023-08-08T07:28:42;16.90;99.90
7704;DHT22;3894;49.700;10.770;2023-08-08T07:31:08;16.70;99.90
7704;DHT22;3894;49.700;10.770;2023-08-08T07:33:33;16.90;99.90
7704;DHT22;3894;49.700;10.770;2023-08-08T07:35:59;16.90;99.90
7704;DHT22;3894;49.700;10.770;2023-08-08T07:38:24;16.90;99.90
7704;DHT22;3894;49.700;10.770;2023-08-08T07:40:50;16.90;99.90
7704;DHT22;3894;49.700;10.770;2023-08-08T07:43:16;16.90;99.90
7704;DHT22;3894;49.700;10.770;2023-08-08T07:45:41;17.00;99.90
7704;DHT22;3894;49.700;10.770;2023-08-08T07:48:08;17.20;99.90
7704;DHT22;3894;49.700;10.770;2023-08-08T07:50:33;17.30;99.90
7704;DHT22;3894;49.700;10.770;2023-08-08T07:52:59;17.30;99.90
7704;DHT22;3894;49.700;10.770;2023-08-08T07:55:24;17.40;99.90
7704;DHT22;3894;49.700;10.770;2023-08-08T07:57:51;17.60;99.90
7704;DHT22;3894;49.700;10.770;2023-08-08T08:00:17;17.80;99.90
7704;DHT22;3894;49.700;10.770;2023-08-08T08:02:44;17.70;99.90
7704;DHT22;3894;49.700;10.770;2023-08-08T08:05:10;17.60;99.90
7704;DHT22;3894;49.700;10.770;2023-08-08T08:07:36;17.40;99.90
7704;DHT22;3894;49.700;10.770;2023-08-08T08:10:09;17.20;99.90
7704;DHT22;3894;49.700;10.770;2023-08-08T08:12:35;17.70;99.90
7704;DHT22;3894;49.700;10.770;2023-08-08T08:15:01;17.70;99.90
7704;DHT22;3894;49.700;10.770;2023-08-08T08:17:27;17.60;99.90
7704;DHT22;3894;49.700;10.770;2023-08-08T08:19:53;17.40;99.90
7704;DHT22;3894;49.700;10.770;2023-08-08T08:22:19;17.30;99.90
7704;DHT22;3894;49.700;10.770;2023-08-08T08:24:44;17.30;99.90
7704;DHT22;3894;49.700;10.770;2023-08-08T08:27:11;17.30;99.90
7704;DHT22;3894;49.700;10.770;2023-08-08T08:29:37;17.20;99.90
7704;DHT22;3894;49.700;10.770;2023-08-08T08:32:04;17.00;99.90
7704;DHT22;3894;49.700;10.770;2023-08-08T08:34:30;16.80;99.90
7704;DHT22;3894;49.700;10.770;2023-08-08T08:36:55;16.60;99.90
7704;DHT22;3894;49.700;10.770;2023-08-08T08:39:21;16.70;99.90
7704;DHT22;3894;49.700;10.770;2023-08-08T08:41:49;17.20;99.90
7704;DHT22;3894;49.700;10.770;2023-08-08T08:44:16;17.80;99.90
7704;DHT22;3894;49.700;10.770;2023-08-08T08:46:42;18.30;99.90
7704;DHT22;3894;49.700;10.770;2023-08-08T08:49:09;18.50;99.90
7704;DHT22;3894;49.700;10.770;2023-08-08T08:51:36;18.60;99.90
7704;DHT22;3894;49.700;10.770;2023-08-08T08:54:02;18.70;99.90
7704;DHT22;3894;49.700;10.770;2023-08-08T08:56:28;18.60;99.90
7704;DHT22;3894;49.700;10.770;2023-08-08T08:58:54;18.70;99.90
7704;DHT22;3894;49.700;10.770;2023-08-08T09:01:21;18.60;99.90
7704;DHT22;3894;49.700;10.770;2023-08-08T09:03:48;18.40;99.90
7704;DHT22;3894;49.700;10.770;2023-08-08T09:06:14;18.00;99.90
7704;DHT22;3894;49.700;10.770;2023-08-08T09:08:41;18.00;99.90
7704;DHT22;3894;49.700;10.770;2023-08-08T09:11:07;18.40;99.90
7704;DHT22;3894;49.700;10.770;2023-08-08T09:13:40;18.50;99.90
7704;DHT22;3894;49.700;10.770;2023-08-08T09:16:09;19.00;99.90
7704;DHT22;3894;49.700;10.770;2023-08-08T09:18:35;19.20;99.90
7704;DHT22;3894;49.700;10.770;2023-08-08T09:21:04;19.10;99.90
7704;DHT22;3894;49.700;10.770;2023-08-08T09:23:30;18.80;99.90
7704;DHT22;3894;49.700;10.770;2023-08-08T09:25:55;18.70;99.90
7704;DHT22;3894;49.700;10.770;2023-08-08T09:28:21;18.50;99.90
7704;DHT22;3894;49.700;10.770;2023-08-08T09:30:47;18.50;99.90
7704;DHT22;3894;49.700;10.770;2023-08-08T09:33:12;18.50;99.90
7704;DHT22;3894;49.700;10.770;2023-08-08T09:35:38;18.60;99.90
7704;DHT22;3894;49.700;10.770;2023-08-08T09:38:04;18.90;99.90
7704;DHT22;3894;49.700;10.770;2023-08-08T09:40:30;19.10;99.90
7704;DHT22;3894;49.700;10.770;2023-08-08T09:42:56;19.20;99.90
7704;DHT22;3894;49.700;10.770;2023-08-08T09:45:22;19.20;99.90
7704;DHT22;3894;49.700;10.770;2023-08-08T09:47:50;19.00;99.90
7704;DHT22;3894;49.700;10.770;2023-08-08T09:50:15;19.20;99.90
7704;DHT22;3894;49.700;10.770;2023-08-08T09:52:42;19.40;99.90
7704;DHT22;3894;49.700;10.770;2023-08-08T09:55:11;19.40;99.90
7704;DHT22;3894;49.700;10.770;2023-08-08T09:57:38;19.30;99.90
7704;DHT22;3894;49.700;10.770;2023-08-08T10:00:06;19.50;99.90
7704;DHT22;3894;49.700;10.770;2023-08-08T10:02:35;19.70;99.90
7704;DHT22;3894;49.700;10.770;2023-08-08T10:05:02;19.80;99.90
7704;DHT22;3894;49.700;10.770;2023-08-08T10:07:29;19.70;99.90
7704;DHT22;3894;49.700;10.770;2023-08-08T10:09:56;19.60;99.90
7704;DHT22;3894;49.700;10.770;2023-08-08T10:12:23;19.50;99.90
7704;DHT22;3894;49.700;10.770;2023-08-08T10:14:51;19.50;99.90
7704;DHT22;3894;49.700;10.770;2023-08-08T10:17:18;19.60;99.90
7704;DHT22;3894;49.700;10.770;2023-08-08T10:19:56;19.40;99.90
7704;DHT22;3894;49.700;10.770;2023-08-08T10:22:24;19.40;99.90
7704;DHT22;3894;49.700;10.770;2023-08-08T10:24:52;19.20;99.90
7704;DHT22;3894;49.700;10.770;2023-08-08T10:27:30;19.20;99.90
7704;DHT22;3894;49.700;10.770;2023-08-08T10:30:04;19.40;99.90
7704;DHT22;3894;49.700;10.770;2023-08-08T10:32:42;19.70;99.90
7704;DHT22;3894;49.700;10.770;2023-08-08T10:35:09;19.80;99.90
7704;DHT22;3894;49.700;10.770;2023-08-08T10:37:35;19.80;99.90
7704;DHT22;3894;49.700;10.770;2023-08-08T10:40:02;19.80;99.90
7704;DHT22;3894;49.700;10.770;2023-08-08T10:42:32;20.00;99.90
7704;DHT22;3894;49.700;10.770;2023-08-08T10:45:02;20.10;99.90
7704;DHT22;3894;49.700;10.770;2023-08-08T10:47:34;20.20;99.90
7704;DHT22;3894;49.700;10.770;2023-08-08T10:50:07;20.20;99.90
7704;DHT22;3894;49.700;10.770;2023-08-08T10:52:59;20.00;99.90
7704;DHT22;3894;49.700;10.770;2023-08-08T10:55:35;19.90;99.90
7704;DHT22;3894;49.700;10.770;2023-08-08T10:58:09;19.80;99.90
7704;DHT22;3894;49.700;10.770;2023-08-08T11:00:37;19.70;99.90
7704;DHT22;3894;49.700;10.770;2023-08-08T11:03:05;19.70;99.90
7704;DHT22;3894;49.700;10.770;2023-08-08T11:05:32;19.70;99.90
7704;DHT22;3894;49.700;10.770;2023-08-08T11:08:03;19.80;99.90
7704;DHT22;3894;49.700;10.770;2023-08-08T11:10:29;19.90;99.90
7704;DHT22;3894;49.700;10.770;2023-08-08T11:13:03;19.80;99.90
7704;DHT22;3894;49.700;10.770;2023-08-08T11:15:29;19.80;99.90
7704;DHT22;3894;49.700;10.770;2023-08-08T11:17:56;19.60;99.90
7704;DHT22;3894;49.700;10.770;2023-08-08T11:20:22;19.50;99.90
7704;DHT22;3894;49.700;10.770;2023-08-08T11:22:55;19.50;99.90
7704;DHT22;3894;49.700;10.770;2023-08-08T11:25:22;19.50;99.90
7704;DHT22;3894;49.700;10.770;2023-08-08T11:27:49;19.60;99.90
7704;DHT22;3894;49.700;10.770;2023-08-08T11:30:15;19.60;99.90
7704;DHT22;3894;49.700;10.770;2023-08-08T11:32:41;19.60;99.90
7704;DHT22;3894;49.700;10.770;2023-08-08T11:35:07;19.60;99.90
7704;DHT22;3894;49.700;10.770;2023-08-08T11:37:33;19.60;99.90
7704;DHT22;3894;49.700;10.770;2023-08-08T11:39:59;19.70;99.90
7704;DHT22;3894;49.700;10.770;2023-08-08T11:42:25;19.90;99.90
7704;DHT22;3894;49.700;10.770;2023-08-08T11:44:51;20.00;99.90
7704;DHT22;3894;49.700;10.770;2023-08-08T11:47:17;20.30;99.90
7704;DHT22;3894;49.700;10.770;2023-08-08T11:49:42;20.40;99.90
7704;DHT22;3894;49.700;10.770;2023-08-08T11:52:08;20.50;99.90
7704;DHT22;3894;49.700;10.770;2023-08-08T11:54:36;20.60;99.90
7704;DHT22;3894;49.700;10.770;2023-08-08T11:57:02;20.50;99.90
7704;DHT22;3894;49.700;10.770;2023-08-08T11:59:27;20.50;99.90
7704;DHT22;3894;49.700;10.770;2023-08-08T12:01:55;20.80;99.90
7704;DHT22;3894;49.700;10.770;2023-08-08T12:04:21;20.80;99.90
7704;DHT22;3894;49.700;10.770;2023-08-08T12:06:46;20.90;99.90
7704;DHT22;3894;49.700;10.770;2023-08-08T12:09:12;20.60;99.90
7704;DHT22;3894;49.700;10.770;2023-08-08T12:11:41;20.50;99.90
7704;DHT22;3894;49.700;10.770;2023-08-08T12:14:09;20.50;99.90
7704;DHT22;3894;49.700;10.770;2023-08-08T12:16:37;20.60;99.90
7704;DHT22;3894;49.700;10.770;2023-08-08T12:19:07;20.60;99.90
7704;DHT22;3894;49.700;10.770;2023-08-08T12:21:34;20.60;99.90
7704;DHT22;3894;49.700;10.770;2023-08-08T12:24:00;20.60;99.90
7704;DHT22;3894;49.700;10.770;2023-08-08T12:26:25;20.50;99.90
7704;DHT22;3894;49.700;10.770;2023-08-08T12:28:51;20.60;99.90
7704;DHT22;3894;49.700;10.770;2023-08-08T12:31:19;20.60;99.90
7704;DHT22;3894;49.700;10.770;2023-08-08T12:33:45;20.50;99.90
7704;DHT22;3894;49.700;10.770;2023-08-08T12:36:11;20.40;99.90
7704;DHT22;3894;49.700;10.770;2023-08-08T12:38:36;20.30;99.90
7704;DHT22;3894;49.700;10.770;2023-08-08T12:41:02;20.20;99.90
7704;DHT22;3894;49.700;10.770;2023-08-08T12:43:28;20.40;99.90
7704;DHT22;3894;49.700;10.770;2023-08-08T12:45:53;20.50;99.90
7704;DHT22;3894;49.700;10.770;2023-08-08T12:48:19;20.80;99.90
7704;DHT22;3894;49.700;10.770;2023-08-08T12:50:44;20.50;99.90
7704;DHT22;3894;49.700;10.770;2023-08-08T12:53:10;20.30;99.90
7704;DHT22;3894;49.700;10.770;2023-08-08T12:55:36;20.30;99.90
7704;DHT22;3894;49.700;10.770;2023-08-08T12:58:03;20.60;99.90
7704;DHT22;3894;49.700;10.770;2023-08-08T13:00:29;20.80;99.90
7704;DHT22;3894;49.700;10.770;2023-08-08T13:02:54;21.10;99.90
7704;DHT22;3894;49.700;10.770;2023-08-08T13:05:20;21.00;99.90
7704;DHT22;3894;49.700;10.770;2023-08-08T13:07:46;21.10;99.90
7704;DHT22;3894;49.700;10.770;2023-08-08T13:10:11;21.10;99.90
7704;DHT22;3894;49.700;10.770;2023-08-08T13:12:37;21.20;99.90
7704;DHT22;3894;49.700;10.770;2023-08-08T13:15:03;21.00;99.90
7704;DHT22;3894;49.700;10.770;2023-08-08T13:17:29;20.80;99.90
7704;DHT22;3894;49.700;10.770;2023-08-08T13:19:54;20.60;99.90
7704;DHT22;3894;49.700;10.770;2023-08-08T13:22:20;20.60;99.90
7704;DHT22;3894;49.700;10.770;2023-08-08T13:24:45;20.50;99.90
7704;DHT22;3894;49.700;10.770;2023-08-08T13:27:11;20.40;98.80
7704;DHT22;3894;49.700;10.770;2023-08-08T13:29:36;20.40;99.90
7704;DHT22;3894;49.700;10.770;2023-08-08T13:32:02;20.60;99.90
7704;DHT22;3894;49.700;10.770;2023-08-08T13:34:29;20.70;99.90
7704;DHT22;3894;49.700;10.770;2023-08-08T13:36:54;20.60;99.90
7704;DHT22;3894;49.700;10.770;2023-08-08T13:39:20;20.50;99.90
7704;DHT22;3894;49.700;10.770;2023-08-08T13:41:45;20.30;99.90
7704;DHT22;3894;49.700;10.770;2023-08-08T13:44:11;20.10;99.90
7704;DHT22;3894;49.700;10.770;2023-08-08T13:46:36;20.10;99.90
7704;DHT22;3894;49.700;10.770;2023-08-08T13:49:02;20.00;99.90
7704;DHT22;3894;49.700;10.770;2023-08-08T13:51:27;19.90;99.90
7704;DHT22;3894;49.700;10.770;2023-08-08T13:53:53;19.80;99.90
7704;DHT22;3894;49.700;10.770;2023-08-08T13:56:21;19.80;99.90
7704;DHT22;3894;49.700;10.770;2023-08-08T13:58:47;19.80;99.90
7704;DHT22;3894;49.700;10.770;2023-08-08T14:01:13;19.70;99.90
7704;DHT22;3894;49.700;10.770;2023-08-08T14:03:38;19.70;99.90
7704;DHT22;3894;49.700;10.770;2023-08-08T14:06:04;19.70;99.90
7704;DHT22;3894;49.700;10.770;2023-08-08T14:08:31;19.70;99.90
7704;DHT22;3894;49.700;10.770;2023-08-08T14:10:57;19.70;99.90
7704;DHT22;3894;49.700;10.770;2023-08-08T14:13:22;19.80;99.90
7704;DHT22;3894;49.700;10.770;2023-08-08T14:15:48;19.90;99.90
7704;DHT22;3894;49.700;10.770;2023-08-08T14:18:14;19.90;99.90
7704;DHT22;3894;49.700;10.770;2023-08-08T14:20:40;20.00;99.90
7704;DHT22;3894;49.700;10.770;2023-08-08T14:23:05;20.00;99.90
7704;DHT22;3894;49.700;10.770;2023-08-08T14:25:31;20.00;99.90
7704;DHT22;3894;49.700;10.770;2023-08-08T14:27:57;20.00;99.90
7704;DHT22;3894;49.700;10.770;2023-08-08T14:30:23;20.20;99.90
7704;DHT22;3894;49.700;10.770;2023-08-08T14:32:51;20.30;99.90
7704;DHT22;3894;49.700;10.770;2023-08-08T14:35:17;20.30;99.90
7704;DHT22;3894;49.700;10.770;2023-08-08T14:37:42;20.20;99.70
7704;DHT22;3894;49.700;10.770;2023-08-08T14:40:08;20.10;99.70
7704;DHT22;3894;49.700;10.770;2023-08-08T14:42:34;20.10;99.20
7704;DHT22;3894;49.700;10.770;2023-08-08T14:45:00;20.20;99.60
7704;DHT22;3894;49.700;10.770;2023-08-08T14:47:26;20.20;99.50
7704;DHT22;3894;49.700;10.770;2023-08-08T14:49:52;20.20;99.50
7704;DHT22;3894;49.700;10.770;2023-08-08T14:52:17;20.10;99.70
7704;DHT22;3894;49.700;10.770;2023-08-08T14:54:43;20.10;99.90
7704;DHT22;3894;49.700;10.770;2023-08-08T14:57:09;20.20;99.90
7704;DHT22;3894;49.700;10.770;2023-08-08T14:59:34;20.20;99.90
7704;DHT22;3894;49.700;10.770;2023-08-08T15:02:00;20.20;99.90
7704;DHT22;3894;49.700;10.770;2023-08-08T15:04:25;20.20;99.90
7704;DHT22;3894;49.700;10.770;2023-08-08T15:06:51;20.30;99.90
7704;DHT22;3894;49.700;10.770;2023-08-08T15:09:16;20.30;99.90
7704;DHT22;3894;49.700;10.770;2023-08-08T15:11:42;20.10;99.90
7704;DHT22;3894;49.700;10.770;2023-08-08T15:14:08;20.10;99.90
7704;DHT22;3894;49.700;10.770;2023-08-08T15:16:33;20.20;99.90
7704;DHT22;3894;49.700;10.770;2023-08-08T15:18:59;20.30;99.90
7704;DHT22;3894;49.700;10.770;2023-08-08T15:21:25;20.30;99.90
7704;DHT22;3894;49.700;10.770;2023-08-08T15:23:50;20.30;99.90
7704;DHT22;3894;49.700;10.770;2023-08-08T15:26:16;20.30;99.90
7704;DHT22;3894;49.700;10.770;2023-08-08T15:28:44;20.20;99.90
7704;DHT22;3894;49.700;10.770;2023-08-08T15:31:10;20.20;99.90
7704;DHT22;3894;49.700;10.770;2023-08-08T15:33:35;20.20;99.90
7704;DHT22;3894;49.700;10.770;2023-08-08T15:36:04;20.20;99.90
7704;DHT22;3894;49.700;10.770;2023-08-08T15:38:30;20.00;99.30
7704;DHT22;3894;49.700;10.770;2023-08-08T15:40:55;20.00;99.50